sensor_id;sensor_type;location;lat;lon;timestamp;P1;durP1;ratioP1;P2;durP2;ratioP2
45077;SDS011;60508;42.622;25.416;2022-08-04T00:00:54;3.53;;;1.33;;
45077;SDS011;60508;42.622;25.416;2022-08-04T00:03:31;1.45;;;1.35;;
45077;SDS011;60508;42.622;25.416;2022-08-04T00:06:18;7.43;;;2.03;;
45077;SDS011;60508;42.622;25.416;2022-08-04T00:08:59;1.23;;;1.13;;
45077;SDS011;60508;42.622;25.416;2022-08-04T00:11:29;1.27;;;1.17;;
45077;SDS011;60508;42.622;25.416;2022-08-04T00:16:32;1.73;;;1.63;;
45077;SDS011;60508;42.622;25.416;2022-08-04T00:22:04;1.88;;;1.63;;
45077;SDS011;60508;42.622;25.416;2022-08-04T00:24:33;3.70;;;2.05;;
45077;SDS011;60508;42.622;25.416;2022-08-04T00:27:00;3.63;;;2.30;;
45077;SDS011;60508;42.622;25.416;2022-08-04T00:29:27;6.32;;;2.40;;
45077;SDS011;60508;42.622;25.416;2022-08-04T00:31:54;2.15;;;1.90;;
45077;SDS011;60508;42.622;25.416;2022-08-04T00:34:25;1.95;;;1.85;;
45077;SDS011;60508;42.622;25.416;2022-08-04T00:36:53;2.97;;;2.05;;
45077;SDS011;60508;42.622;25.416;2022-08-04T00:39:20;2.38;;;2.15;;
45077;SDS011;60508;42.622;25.416;2022-08-04T00:44:38;2.25;;;1.83;;
45077;SDS011;60508;42.622;25.416;2022-08-04T00:56:20;2.22;;;1.83;;
45077;SDS011;60508;42.622;25.416;2022-08-04T00:59:02;2.53;;;1.95;;
45077;SDS011;60508;42.622;25.416;2022-08-04T01:18:20;2.25;;;2.05;;
45077;SDS011;60508;42.622;25.416;2022-08-04T01:34:22;5.18;;;2.67;;
45077;SDS011;60508;42.622;25.416;2022-08-04T01:36:57;4.18;;;2.33;;
45077;SDS011;60508;42.622;25.416;2022-08-04T01:39:30;2.42;;;2.22;;
45077;SDS011;60508;42.622;25.416;2022-08-04T01:42:06;3.85;;;2.28;;
45077;SDS011;60508;42.622;25.416;2022-08-04T01:44:34;2.97;;;2.42;;
45077;SDS011;60508;42.622;25.416;2022-08-04T01:47:02;4.70;;;2.88;;
45077;SDS011;60508;42.622;25.416;2022-08-04T01:49:28;2.40;;;2.20;;
45077;SDS011;60508;42.622;25.416;2022-08-04T01:51:56;2.60;;;2.35;;
45077;SDS011;60508;42.622;25.416;2022-08-04T01:54:22;2.30;;;2.10;;
45077;SDS011;60508;42.622;25.416;2022-08-04T01:56:49;7.30;;;2.35;;
45077;SDS011;60508;42.622;25.416;2022-08-04T01:59:19;2.10;;;2.00;;
45077;SDS011;60508;42.622;25.416;2022-08-04T02:01:45;2.45;;;2.25;;
45077;SDS011;60508;42.622;25.416;2022-08-04T02:04:13;5.47;;;2.47;;
45077;SDS011;60508;42.622;25.416;2022-08-04T02:09:38;2.88;;;2.03;;
45077;SDS011;60508;42.622;25.416;2022-08-04T02:15:09;2.13;;;1.95;;
45077;SDS011;60508;42.622;25.416;2022-08-04T02:17:50;2.20;;;2.00;;
45077;SDS011;60508;42.622;25.416;2022-08-04T02:20:23;2.45;;;2.15;;
45077;SDS011;60508;42.622;25.416;2022-08-04T02:25:39;2.05;;;1.95;;
45077;SDS011;60508;42.622;25.416;2022-08-04T02:31:00;2.35;;;2.15;;
45077;SDS011;60508;42.622;25.416;2022-08-04T02:33:39;4.43;;;1.73;;
45077;SDS011;60508;42.622;25.416;2022-08-04T02:36:09;2.85;;;2.00;;
45077;SDS011;60508;42.622;25.416;2022-08-04T02:38:59;3.17;;;2.35;;
45077;SDS011;60508;42.622;25.416;2022-08-04T02:41:27;2.42;;;2.22;;
45077;SDS011;60508;42.622;25.416;2022-08-04T02:43:58;3.55;;;2.00;;
45077;SDS011;60508;42.622;25.416;2022-08-04T02:46:26;2.90;;;2.17;;
45077;SDS011;60508;42.622;25.416;2022-08-04T02:48:54;2.30;;;2.10;;
45077;SDS011;60508;42.622;25.416;2022-08-04T02:51:22;9.35;;;2.60;;
45077;SDS011;60508;42.622;25.416;2022-08-04T02:53:53;2.80;;;2.28;;
45077;SDS011;60508;42.622;25.416;2022-08-04T02:56:21;4.63;;;2.03;;
45077;SDS011;60508;42.622;25.416;2022-08-04T02:58:52;4.32;;;2.00;;
45077;SDS011;60508;42.622;25.416;2022-08-04T03:01:23;3.20;;;2.65;;
45077;SDS011;60508;42.622;25.416;2022-08-04T03:04:00;3.22;;;2.15;;
45077;SDS011;60508;42.622;25.416;2022-08-04T03:25:52;2.17;;;2.08;;
45077;SDS011;60508;42.622;25.416;2022-08-04T03:35:29;2.78;;;2.10;;
45077;SDS011;60508;42.622;25.416;2022-08-04T04:14:39;3.58;;;1.75;;
45077;SDS011;60508;42.622;25.416;2022-08-04T04:26:06;2.45;;;1.92;;
45077;SDS011;60508;42.622;25.416;2022-08-04T04:28:48;8.27;;;2.60;;
45077;SDS011;60508;42.622;25.416;2022-08-04T04:39:42;2.03;;;1.83;;
45077;SDS011;60508;42.622;25.416;2022-08-04T04:58:36;4.57;;;1.85;;
45077;SDS011;60508;42.622;25.416;2022-08-04T05:14:49;10.43;;;2.17;;
45077;SDS011;60508;42.622;25.416;2022-08-04T05:19:48;6.03;;;2.25;;
45077;SDS011;60508;42.622;25.416;2022-08-04T05:22:24;3.65;;;2.38;;
45077;SDS011;60508;42.622;25.416;2022-08-04T05:25:07;4.85;;;2.60;;
45077;SDS011;60508;42.622;25.416;2022-08-04T05:27:44;12.63;;;2.67;;
45077;SDS011;60508;42.622;25.416;2022-08-04T05:30:14;4.38;;;2.92;;
45077;SDS011;60508;42.622;25.416;2022-08-04T05:32:47;4.72;;;2.28;;
45077;SDS011;60508;42.622;25.416;2022-08-04T05:35:20;4.70;;;1.88;;
45077;SDS011;60508;42.622;25.416;2022-08-04T05:37:52;9.30;;;1.73;;
45077;SDS011;60508;42.622;25.416;2022-08-04T05:40:20;7.85;;;2.05;;
45077;SDS011;60508;42.622;25.416;2022-08-04T05:42:49;5.07;;;2.00;;
45077;SDS011;60508;42.622;25.416;2022-08-04T05:45:16;2.90;;;2.30;;
45077;SDS011;60508;42.622;25.416;2022-08-04T05:47:44;3.58;;;2.03;;
45077;SDS011;60508;42.622;25.416;2022-08-04T05:50:12;2.15;;;1.98;;
45077;SDS011;60508;42.622;25.416;2022-08-04T05:52:39;4.55;;;2.63;;
45077;SDS011;60508;42.622;25.416;2022-08-04T05:55:08;7.25;;;2.60;;
45077;SDS011;60508;42.622;25.416;2022-08-04T05:57:40;7.20;;;2.40;;
45077;SDS011;60508;42.622;25.416;2022-08-04T06:00:07;5.07;;;2.30;;
45077;SDS011;60508;42.622;25.416;2022-08-04T06:02:35;10.43;;;3.45;;
45077;SDS011;60508;42.622;25.416;2022-08-04T06:05:04;4.85;;;2.30;;
45077;SDS011;60508;42.622;25.416;2022-08-04T06:07:32;4.72;;;1.90;;
45077;SDS011;60508;42.622;25.416;2022-08-04T06:09:59;3.58;;;2.22;;
45077;SDS011;60508;42.622;25.416;2022-08-04T06:12:29;3.08;;;2.40;;
45077;SDS011;60508;42.622;25.416;2022-08-04T06:15:02;7.80;;;5.18;;
45077;SDS011;60508;42.622;25.416;2022-08-04T06:17:30;7.15;;;4.50;;
45077;SDS011;60508;42.622;25.416;2022-08-04T06:19:58;7.55;;;5.43;;
45077;SDS011;60508;42.622;25.416;2022-08-04T06:22:26;3.28;;;2.20;;
45077;SDS011;60508;42.622;25.416;2022-08-04T06:24:54;4.47;;;3.55;;
45077;SDS011;60508;42.622;25.416;2022-08-04T06:27:23;5.70;;;3.83;;
45077;SDS011;60508;42.622;25.416;2022-08-04T06:29:50;4.55;;;2.80;;
45077;SDS011;60508;42.622;25.416;2022-08-04T06:32:18;4.70;;;2.70;;
45077;SDS011;60508;42.622;25.416;2022-08-04T06:35:13;16.83;;;4.85;;
45077;SDS011;60508;42.622;25.416;2022-08-04T06:37:42;7.20;;;3.28;;
45077;SDS011;60508;42.622;25.416;2022-08-04T06:40:10;13.45;;;3.08;;
45077;SDS011;60508;42.622;25.416;2022-08-04T06:45:05;12.32;;;6.10;;
45077;SDS011;60508;42.622;25.416;2022-08-04T06:47:32;9.13;;;4.35;;
45077;SDS011;60508;42.622;25.416;2022-08-04T06:50:01;10.63;;;4.50;;
45077;SDS011;60508;42.622;25.416;2022-08-04T06:52:29;7.53;;;4.20;;
45077;SDS011;60508;42.622;25.416;2022-08-04T06:54:56;6.57;;;2.00;;
45077;SDS011;60508;42.622;25.416;2022-08-04T06:57:23;12.13;;;7.35;;
45077;SDS011;60508;42.622;25.416;2022-08-04T07:00:04;9.60;;;4.55;;
45077;SDS011;60508;42.622;25.416;2022-08-04T07:02:38;11.65;;;3.95;;
45077;SDS011;60508;42.622;25.416;2022-08-04T07:05:09;4.07;;;2.40;;
45077;SDS011;60508;42.622;25.416;2022-08-04T07:07:36;4.65;;;3.10;;
45077;SDS011;60508;42.622;25.416;2022-08-04T07:10:04;10.43;;;4.20;;
45077;SDS011;60508;42.622;25.416;2022-08-04T07:12:31;11.48;;;6.78;;
45077;SDS011;60508;42.622;25.416;2022-08-04T07:14:57;6.38;;;5.15;;
45077;SDS011;60508;42.622;25.416;2022-08-04T07:17:23;15.93;;;4.97;;
45077;SDS011;60508;42.622;25.416;2022-08-04T07:19:50;5.35;;;1.88;;
45077;SDS011;60508;42.622;25.416;2022-08-04T07:22:17;4.30;;;3.88;;
45077;SDS011;60508;42.622;25.416;2022-08-04T07:24:44;5.35;;;4.20;;
45077;SDS011;60508;42.622;25.416;2022-08-04T07:27:10;5.90;;;4.68;;
45077;SDS011;60508;42.622;25.416;2022-08-04T07:29:37;9.25;;;3.38;;
45077;SDS011;60508;42.622;25.416;2022-08-04T07:32:04;5.30;;;2.60;;
45077;SDS011;60508;42.622;25.416;2022-08-04T07:34:31;8.93;;;6.15;;
45077;SDS011;60508;42.622;25.416;2022-08-04T07:36:58;6.18;;;3.10;;
45077;SDS011;60508;42.622;25.416;2022-08-04T07:39:26;3.83;;;1.88;;
45077;SDS011;60508;42.622;25.416;2022-08-04T07:41:56;8.23;;;1.88;;
45077;SDS011;60508;42.622;25.416;2022-08-04T07:44:24;4.75;;;2.90;;
45077;SDS011;60508;42.622;25.416;2022-08-04T07:46:52;8.07;;;4.32;;
45077;SDS011;60508;42.622;25.416;2022-08-04T07:49:19;6.20;;;2.30;;
45077;SDS011;60508;42.622;25.416;2022-08-04T07:51:46;6.40;;;2.47;;
45077;SDS011;60508;42.622;25.416;2022-08-04T07:54:12;7.97;;;4.45;;
45077;SDS011;60508;42.622;25.416;2022-08-04T07:56:40;3.63;;;2.20;;
45077;SDS011;60508;42.622;25.416;2022-08-04T07:59:06;2.75;;;2.28;;
45077;SDS011;60508;42.622;25.416;2022-08-04T08:01:33;6.72;;;3.10;;
45077;SDS011;60508;42.622;25.416;2022-08-04T08:04:01;8.70;;;3.58;;
45077;SDS011;60508;42.622;25.416;2022-08-04T08:06:29;5.13;;;3.67;;
45077;SDS011;60508;42.622;25.416;2022-08-04T08:08:56;3.22;;;2.10;;
45077;SDS011;60508;42.622;25.416;2022-08-04T08:11:25;5.68;;;2.97;;
45077;SDS011;60508;42.622;25.416;2022-08-04T08:13:51;4.28;;;3.58;;
45077;SDS011;60508;42.622;25.416;2022-08-04T08:16:17;5.50;;;4.68;;
45077;SDS011;60508;42.622;25.416;2022-08-04T08:18:45;5.53;;;3.22;;
45077;SDS011;60508;42.622;25.416;2022-08-04T08:21:12;3.42;;;3.13;;
45077;SDS011;60508;42.622;25.416;2022-08-04T08:23:38;2.83;;;2.50;;
45077;SDS011;60508;42.622;25.416;2022-08-04T08:26:05;8.68;;;3.70;;
45077;SDS011;60508;42.622;25.416;2022-08-04T08:28:31;3.20;;;2.35;;
45077;SDS011;60508;42.622;25.416;2022-08-04T08:35:16;4.50;;;3.78;;
45077;SDS011;60508;42.622;25.416;2022-08-04T08:37:44;4.35;;;2.92;;
45077;SDS011;60508;42.622;25.416;2022-08-04T08:40:28;6.68;;;4.40;;
45077;SDS011;60508;42.622;25.416;2022-08-04T08:43:28;4.75;;;4.20;;
45077;SDS011;60508;42.622;25.416;2022-08-04T08:49:14;5.00;;;4.60;;
45077;SDS011;60508;42.622;25.416;2022-08-04T08:54:55;5.65;;;5.07;;
45077;SDS011;60508;42.622;25.416;2022-08-04T08:57:44;8.48;;;3.85;;
45077;SDS011;60508;42.622;25.416;2022-08-04T09:02:58;5.70;;;4.20;;
45077;SDS011;60508;42.622;25.416;2022-08-04T09:11:13;5.15;;;3.30;;
45077;SDS011;60508;42.622;25.416;2022-08-04T09:13:56;3.78;;;3.13;;
45077;SDS011;60508;42.622;25.416;2022-08-04T09:19:18;7.63;;;6.47;;
45077;SDS011;60508;42.622;25.416;2022-08-04T09:22:00;2.90;;;2.58;;
45077;SDS011;60508;42.622;25.416;2022-08-04T09:25:06;2.30;;;2.08;;
45077;SDS011;60508;42.622;25.416;2022-08-04T09:30:42;2.65;;;2.00;;
45077;SDS011;60508;42.622;25.416;2022-08-04T09:33:23;9.68;;;8.10;;
45077;SDS011;60508;42.622;25.416;2022-08-04T09:36:02;4.03;;;3.72;;
45077;SDS011;60508;42.622;25.416;2022-08-04T09:38:34;7.45;;;5.65;;
45077;SDS011;60508;42.622;25.416;2022-08-04T09:41:24;7.90;;;4.40;;
45077;SDS011;60508;42.622;25.416;2022-08-04T09:44:12;6.97;;;3.22;;
45077;SDS011;60508;42.622;25.416;2022-08-04T09:52:27;3.35;;;2.75;;
45077;SDS011;60508;42.622;25.416;2022-08-04T10:00:18;5.85;;;1.85;;
45077;SDS011;60508;42.622;25.416;2022-08-04T10:05:15;4.95;;;1.52;;
45077;SDS011;60508;42.622;25.416;2022-08-04T10:11:20;2.70;;;1.58;;
45077;SDS011;60508;42.622;25.416;2022-08-04T10:14:00;6.03;;;2.35;;
45077;SDS011;60508;42.622;25.416;2022-08-04T10:16:38;4.53;;;2.55;;
45077;SDS011;60508;42.622;25.416;2022-08-04T10:19:27;3.53;;;1.90;;
45077;SDS011;60508;42.622;25.416;2022-08-04T10:22:03;4.90;;;3.13;;
45077;SDS011;60508;42.622;25.416;2022-08-04T10:27:21;2.25;;;1.42;;
45077;SDS011;60508;42.622;25.416;2022-08-04T10:29:50;5.85;;;2.90;;
45077;SDS011;60508;42.622;25.416;2022-08-04T10:32:23;2.53;;;2.28;;
45077;SDS011;60508;42.622;25.416;2022-08-04T10:35:07;5.15;;;1.33;;
45077;SDS011;60508;42.622;25.416;2022-08-04T10:40:22;3.90;;;3.53;;
45077;SDS011;60508;42.622;25.416;2022-08-04T10:45:41;2.00;;;1.90;;
45077;SDS011;60508;42.622;25.416;2022-08-04T10:52:11;2.83;;;2.33;;
45077;SDS011;60508;42.622;25.416;2022-08-04T10:57:25;5.55;;;3.55;;
45077;SDS011;60508;42.622;25.416;2022-08-04T11:07:56;2.38;;;2.17;;
45077;SDS011;60508;42.622;25.416;2022-08-04T11:10:27;5.47;;;1.35;;
45077;SDS011;60508;42.622;25.416;2022-08-04T11:12:59;2.30;;;2.10;;
45077;SDS011;60508;42.622;25.416;2022-08-04T11:15:32;2.65;;;2.45;;
45077;SDS011;60508;42.622;25.416;2022-08-04T11:18:12;2.80;;;2.60;;
45077;SDS011;60508;42.622;25.416;2022-08-04T11:20:47;3.65;;;2.28;;
45077;SDS011;60508;42.622;25.416;2022-08-04T11:23:22;2.30;;;2.10;;
45077;SDS011;60508;42.622;25.416;2022-08-04T11:26:36;2.75;;;1.80;;
45077;SDS011;60508;42.622;25.416;2022-08-04T11:28:58;1.48;;;1.38;;
45077;SDS011;60508;42.622;25.416;2022-08-04T11:31:42;3.65;;;1.80;;
45077;SDS011;60508;42.622;25.416;2022-08-04T11:34:20;1.60;;;1.50;;
45077;SDS011;60508;42.622;25.416;2022-08-04T11:37:06;1.23;;;1.13;;
45077;SDS011;60508;42.622;25.416;2022-08-04T11:45:06;2.35;;;1.17;;
45077;SDS011;60508;42.622;25.416;2022-08-04T11:50:31;6.95;;;1.70;;
45077;SDS011;60508;42.622;25.416;2022-08-04T11:53:04;1.40;;;1.30;;
45077;SDS011;60508;42.622;25.416;2022-08-04T11:55:32;3.00;;;1.50;;
45077;SDS011;60508;42.622;25.416;2022-08-04T11:57:59;7.97;;;1.42;;
45077;SDS011;60508;42.622;25.416;2022-08-04T12:00:27;3.38;;;1.27;;
45077;SDS011;60508;42.622;25.416;2022-08-04T12:05:31;6.50;;;1.30;;
45077;SDS011;60508;42.622;25.416;2022-08-04T12:10:43;5.20;;;1.60;;
45077;SDS011;60508;42.622;25.416;2022-08-04T12:21:17;14.20;;;1.40;;
45077;SDS011;60508;42.622;25.416;2022-08-04T12:23:52;2.15;;;1.30;;
45077;SDS011;60508;42.622;25.416;2022-08-04T12:26:27;1.38;;;1.27;;
45077;SDS011;60508;42.622;25.416;2022-08-04T12:28:57;2.72;;;1.58;;
45077;SDS011;60508;42.622;25.416;2022-08-04T12:36:45;2.92;;;1.83;;
45077;SDS011;60508;42.622;25.416;2022-08-04T12:39:20;1.48;;;1.38;;
45077;SDS011;60508;42.622;25.416;2022-08-04T12:42:06;1.60;;;1.48;;
45077;SDS011;60508;42.622;25.416;2022-08-04T12:44:39;1.48;;;1.35;;
45077;SDS011;60508;42.622;25.416;2022-08-04T12:47:08;1.65;;;1.52;;
45077;SDS011;60508;42.622;25.416;2022-08-04T12:49:36;1.08;;;0.98;;
45077;SDS011;60508;42.622;25.416;2022-08-04T12:52:07;1.00;;;0.88;;
45077;SDS011;60508;42.622;25.416;2022-08-04T12:54:34;2.05;;;1.23;;
45077;SDS011;60508;42.622;25.416;2022-08-04T12:57:05;4.10;;;1.42;;
45077;SDS011;60508;42.622;25.416;2022-08-04T13:00:05;3.28;;;1.10;;
45077;SDS011;60508;42.622;25.416;2022-08-04T13:02:26;7.70;;;2.22;;
45077;SDS011;60508;42.622;25.416;2022-08-04T13:04:54;2.30;;;1.40;;
45077;SDS011;60508;42.622;25.416;2022-08-04T13:07:25;5.40;;;2.35;;
45077;SDS011;60508;42.622;25.416;2022-08-04T13:09:53;7.15;;;1.55;;
45077;SDS011;60508;42.622;25.416;2022-08-04T13:12:20;2.90;;;2.15;;
45077;SDS011;60508;42.622;25.416;2022-08-04T13:14:50;1.27;;;1.08;;
45077;SDS011;60508;42.622;25.416;2022-08-04T13:17:23;6.53;;;1.45;;
45077;SDS011;60508;42.622;25.416;2022-08-04T13:19:49;4.68;;;1.17;;
45077;SDS011;60508;42.622;25.416;2022-08-04T13:22:22;3.17;;;1.38;;
45077;SDS011;60508;42.622;25.416;2022-08-04T13:24:58;1.27;;;1.15;;
45077;SDS011;60508;42.622;25.416;2022-08-04T13:27:26;5.40;;;1.60;;
45077;SDS011;60508;42.622;25.416;2022-08-04T13:29:54;1.35;;;1.10;;
45077;SDS011;60508;42.622;25.416;2022-08-04T13:32:22;4.95;;;1.52;;
45077;SDS011;60508;42.622;25.416;2022-08-04T13:34:53;5.57;;;1.00;;
45077;SDS011;60508;42.622;25.416;2022-08-04T13:37:22;8.00;;;1.17;;
45077;SDS011;60508;42.622;25.416;2022-08-04T13:39:51;0.98;;;0.80;;
45077;SDS011;60508;42.622;25.416;2022-08-04T13:42:19;2.57;;;1.03;;
45077;SDS011;60508;42.622;25.416;2022-08-04T13:44:46;13.77;;;1.73;;
45077;SDS011;60508;42.622;25.416;2022-08-04T13:47:14;2.33;;;0.95;;
45077;SDS011;60508;42.622;25.416;2022-08-04T13:52:35;4.03;;;1.05;;
45077;SDS011;60508;42.622;25.416;2022-08-04T13:55:02;2.10;;;1.08;;
45077;SDS011;60508;42.622;25.416;2022-08-04T13:57:28;1.10;;;1.00;;
45077;SDS011;60508;42.622;25.416;2022-08-04T13:59:59;1.98;;;1.10;;
45077;SDS011;60508;42.622;25.416;2022-08-04T14:02:40;1.98;;;0.95;;
45077;SDS011;60508;42.622;25.416;2022-08-04T14:05:13;10.23;;;1.20;;
45077;SDS011;60508;42.622;25.416;2022-08-04T14:07:53;3.80;;;1.30;;
45077;SDS011;60508;42.622;25.416;2022-08-04T14:10:22;1.42;;;0.85;;
45077;SDS011;60508;42.622;25.416;2022-08-04T14:12:49;1.67;;;1.13;;
45077;SDS011;60508;42.622;25.416;2022-08-04T14:15:29;1.88;;;0.85;;
45077;SDS011;60508;42.622;25.416;2022-08-04T14:18:39;6.82;;;1.00;;
45077;SDS011;60508;42.622;25.416;2022-08-04T14:26:17;1.58;;;1.00;;
45077;SDS011;60508;42.622;25.416;2022-08-04T14:28:46;6.18;;;1.02;;
45077;SDS011;60508;42.622;25.416;2022-08-04T14:31:14;2.30;;;0.90;;
45077;SDS011;60508;42.622;25.416;2022-08-04T14:33:45;4.88;;;1.02;;
45077;SDS011;60508;42.622;25.416;2022-08-04T14:36:12;1.38;;;1.00;;
45077;SDS011;60508;42.622;25.416;2022-08-04T14:41:08;2.55;;;0.68;;
45077;SDS011;60508;42.622;25.416;2022-08-04T14:43:42;2.40;;;1.35;;
45077;SDS011;60508;42.622;25.416;2022-08-04T14:46:10;4.45;;;0.70;;
45077;SDS011;60508;42.622;25.416;2022-08-04T14:48:37;6.88;;;1.08;;
45077;SDS011;60508;42.622;25.416;2022-08-04T14:51:04;4.45;;;0.80;;
45077;SDS011;60508;42.622;25.416;2022-08-04T14:53:38;2.95;;;0.80;;
45077;SDS011;60508;42.622;25.416;2022-08-04T14:56:04;1.60;;;0.90;;
45077;SDS011;60508;42.622;25.416;2022-08-04T14:58:31;3.15;;;1.10;;
45077;SDS011;60508;42.622;25.416;2022-08-04T15:00:59;1.33;;;0.90;;
45077;SDS011;60508;42.622;25.416;2022-08-04T15:03:28;1.55;;;0.70;;
45077;SDS011;60508;42.622;25.416;2022-08-04T15:05:56;3.10;;;0.82;;
45077;SDS011;60508;42.622;25.416;2022-08-04T15:08:24;3.50;;;1.00;;
45077;SDS011;60508;42.622;25.416;2022-08-04T15:10:52;4.60;;;0.90;;
45077;SDS011;60508;42.622;25.416;2022-08-04T15:13:24;3.90;;;1.00;;
45077;SDS011;60508;42.622;25.416;2022-08-04T15:15:51;3.43;;;0.80;;
45077;SDS011;60508;42.622;25.416;2022-08-04T15:18:17;3.50;;;0.98;;
45077;SDS011;60508;42.622;25.416;2022-08-04T15:20:44;0.90;;;0.90;;
45077;SDS011;60508;42.622;25.416;2022-08-04T15:23:11;1.77;;;1.10;;
45077;SDS011;60508;42.622;25.416;2022-08-04T15:25:47;2.42;;;0.85;;
45077;SDS011;60508;42.622;25.416;2022-08-04T15:28:17;0.82;;;0.82;;
45077;SDS011;60508;42.622;25.416;2022-08-04T15:30:47;5.10;;;0.70;;
45077;SDS011;60508;42.622;25.416;2022-08-04T15:33:15;1.95;;;0.90;;
45077;SDS011;60508;42.622;25.416;2022-08-04T15:35:49;0.88;;;0.80;;
45077;SDS011;60508;42.622;25.416;2022-08-04T15:38:28;17.13;;;1.60;;
45077;SDS011;60508;42.622;25.416;2022-08-04T15:41:04;1.80;;;1.20;;
45077;SDS011;60508;42.622;25.416;2022-08-04T15:46:15;3.42;;;1.17;;
45077;SDS011;60508;42.622;25.416;2022-08-04T15:48:57;8.05;;;1.10;;
45077;SDS011;60508;42.622;25.416;2022-08-04T15:52:05;4.70;;;1.40;;
45077;SDS011;60508;42.622;25.416;2022-08-04T15:54:33;1.52;;;0.95;;
45077;SDS011;60508;42.622;25.416;2022-08-04T15:57:03;3.95;;;1.42;;
45077;SDS011;60508;42.622;25.416;2022-08-04T16:10:36;1.65;;;1.15;;
45077;SDS011;60508;42.622;25.416;2022-08-04T16:13:15;2.20;;;1.20;;
45077;SDS011;60508;42.622;25.416;2022-08-04T16:15:54;6.25;;;1.33;;
45077;SDS011;60508;42.622;25.416;2022-08-04T16:20:50;2.28;;;1.10;;
45077;SDS011;60508;42.622;25.416;2022-08-04T16:26:02;4.75;;;0.77;;
45077;SDS011;60508;42.622;25.416;2022-08-04T16:31:18;1.90;;;1.17;;
45077;SDS011;60508;42.622;25.416;2022-08-04T16:33:44;1.65;;;1.20;;
45077;SDS011;60508;42.622;25.416;2022-08-04T16:36:11;1.80;;;1.67;;
45077;SDS011;60508;42.622;25.416;2022-08-04T16:41:41;3.08;;;1.20;;
45077;SDS011;60508;42.622;25.416;2022-08-04T16:44:27;10.18;;;1.17;;
45077;SDS011;60508;42.622;25.416;2022-08-04T16:46:56;3.50;;;1.40;;
45077;SDS011;60508;42.622;25.416;2022-08-04T16:49:27;5.10;;;1.20;;
45077;SDS011;60508;42.622;25.416;2022-08-04T16:52:02;1.45;;;1.35;;
45077;SDS011;60508;42.622;25.416;2022-08-04T16:54:30;1.55;;;1.38;;
45077;SDS011;60508;42.622;25.416;2022-08-04T16:56:59;2.03;;;1.25;;
45077;SDS011;60508;42.622;25.416;2022-08-04T16:59:32;2.88;;;1.75;;
45077;SDS011;60508;42.622;25.416;2022-08-04T17:01:58;8.77;;;2.08;;
45077;SDS011;60508;42.622;25.416;2022-08-04T17:04:32;3.05;;;1.50;;
45077;SDS011;60508;42.622;25.416;2022-08-04T17:07:00;4.20;;;1.30;;
45077;SDS011;60508;42.622;25.416;2022-08-04T17:09:27;1.67;;;1.48;;
45077;SDS011;60508;42.622;25.416;2022-08-04T17:11:54;2.97;;;1.10;;
45077;SDS011;60508;42.622;25.416;2022-08-04T17:14:21;1.95;;;1.38;;
45077;SDS011;60508;42.622;25.416;2022-08-04T17:16:48;7.38;;;1.92;;
45077;SDS011;60508;42.622;25.416;2022-08-04T17:19:16;2.83;;;1.70;;
45077;SDS011;60508;42.622;25.416;2022-08-04T17:21:42;6.28;;;1.92;;
45077;SDS011;60508;42.622;25.416;2022-08-04T17:24:09;2.00;;;1.83;;
45077;SDS011;60508;42.622;25.416;2022-08-04T17:26:36;3.28;;;1.52;;
45077;SDS011;60508;42.622;25.416;2022-08-04T17:29:03;5.75;;;1.73;;
45077;SDS011;60508;42.622;25.416;2022-08-04T17:31:30;7.07;;;1.30;;
45077;SDS011;60508;42.622;25.416;2022-08-04T17:34:01;8.53;;;1.70;;
45077;SDS011;60508;42.622;25.416;2022-08-04T17:36:33;1.70;;;1.60;;
45077;SDS011;60508;42.622;25.416;2022-08-04T17:39:02;33.58;;;2.85;;
45077;SDS011;60508;42.622;25.416;2022-08-04T17:41:36;1.73;;;1.63;;
45077;SDS011;60508;42.622;25.416;2022-08-04T17:44:03;1.33;;;1.23;;
45077;SDS011;60508;42.622;25.416;2022-08-04T17:51:51;1.65;;;1.38;;
45077;SDS011;60508;42.622;25.416;2022-08-04T17:56:56;4.28;;;1.52;;
45077;SDS011;60508;42.622;25.416;2022-08-04T18:02:08;7.82;;;1.75;;
45077;SDS011;60508;42.622;25.416;2022-08-04T18:07:11;3.58;;;2.25;;
45077;SDS011;60508;42.622;25.416;2022-08-04T18:14:53;8.45;;;2.03;;
45077;SDS011;60508;42.622;25.416;2022-08-04T18:17:34;2.55;;;1.73;;
45077;SDS011;60508;42.622;25.416;2022-08-04T18:20:01;2.20;;;1.30;;
45077;SDS011;60508;42.622;25.416;2022-08-04T18:22:35;4.20;;;1.52;;
45077;SDS011;60508;42.622;25.416;2022-08-04T18:25:02;6.13;;;1.40;;
45077;SDS011;60508;42.622;25.416;2022-08-04T18:27:29;1.33;;;1.08;;
45077;SDS011;60508;42.622;25.416;2022-08-04T18:29:56;7.40;;;1.67;;
45077;SDS011;60508;42.622;25.416;2022-08-04T18:32:23;2.60;;;1.83;;
45077;SDS011;60508;42.622;25.416;2022-08-04T18:34:50;1.70;;;1.35;;
45077;SDS011;60508;42.622;25.416;2022-08-04T18:37:18;2.10;;;1.60;;
45077;SDS011;60508;42.622;25.416;2022-08-04T18:39:44;2.10;;;1.40;;
45077;SDS011;60508;42.622;25.416;2022-08-04T18:42:10;5.90;;;1.58;;
45077;SDS011;60508;42.622;25.416;2022-08-04T18:44:36;2.67;;;1.63;;
45077;SDS011;60508;42.622;25.416;2022-08-04T18:47:02;1.42;;;1.17;;
45077;SDS011;60508;42.622;25.416;2022-08-04T18:49:30;10.55;;;2.28;;
45077;SDS011;60508;42.622;25.416;2022-08-04T18:51:56;1.13;;;1.13;;
45077;SDS011;60508;42.622;25.416;2022-08-04T18:54:23;4.00;;;1.55;;
45077;SDS011;60508;42.622;25.416;2022-08-04T18:56:50;1.85;;;1.27;;
45077;SDS011;60508;42.622;25.416;2022-08-04T18:59:17;10.15;;;1.33;;
45077;SDS011;60508;42.622;25.416;2022-08-04T19:01:43;10.15;;;1.63;;
45077;SDS011;60508;42.622;25.416;2022-08-04T19:04:09;5.13;;;1.73;;
45077;SDS011;60508;42.622;25.416;2022-08-04T19:06:36;2.95;;;1.67;;
45077;SDS011;60508;42.622;25.416;2022-08-04T19:09:03;5.63;;;1.85;;
45077;SDS011;60508;42.622;25.416;2022-08-04T19:11:30;4.03;;;1.50;;
45077;SDS011;60508;42.622;25.416;2022-08-04T19:14:03;2.15;;;1.35;;
45077;SDS011;60508;42.622;25.416;2022-08-04T19:16:30;1.50;;;1.35;;
45077;SDS011;60508;42.622;25.416;2022-08-04T19:18:58;1.30;;;1.20;;
45077;SDS011;60508;42.622;25.416;2022-08-04T19:21:25;3.33;;;1.42;;
45077;SDS011;60508;42.622;25.416;2022-08-04T19:23:52;3.80;;;1.05;;
45077;SDS011;60508;42.622;25.416;2022-08-04T19:26:19;1.60;;;1.20;;
45077;SDS011;60508;42.622;25.416;2022-08-04T19:28:47;6.53;;;1.55;;
45077;SDS011;60508;42.622;25.416;2022-08-04T19:31:14;7.45;;;1.60;;
45077;SDS011;60508;42.622;25.416;2022-08-04T19:33:40;1.98;;;1.50;;
45077;SDS011;60508;42.622;25.416;2022-08-04T19:36:07;2.03;;;1.30;;
45077;SDS011;60508;42.622;25.416;2022-08-04T19:38:33;9.63;;;1.63;;
45077;SDS011;60508;42.622;25.416;2022-08-04T19:41:01;5.80;;;1.50;;
45077;SDS011;60508;42.622;25.416;2022-08-04T19:43:29;9.18;;;1.38;;
45077;SDS011;60508;42.622;25.416;2022-08-04T19:45:56;3.42;;;1.33;;
45077;SDS011;60508;42.622;25.416;2022-08-04T19:48:22;3.40;;;1.40;;
45077;SDS011;60508;42.622;25.416;2022-08-04T19:50:48;5.95;;;1.63;;
45077;SDS011;60508;42.622;25.416;2022-08-04T19:53:15;5.35;;;1.60;;
45077;SDS011;60508;42.622;25.416;2022-08-04T19:55:43;1.80;;;1.17;;
45077;SDS011;60508;42.622;25.416;2022-08-04T19:58:10;2.13;;;1.25;;
45077;SDS011;60508;42.622;25.416;2022-08-04T20:00:37;3.05;;;1.45;;
45077;SDS011;60508;42.622;25.416;2022-08-04T20:03:08;2.38;;;1.38;;
45077;SDS011;60508;42.622;25.416;2022-08-04T20:05:34;2.28;;;1.67;;
45077;SDS011;60508;42.622;25.416;2022-08-04T20:08:00;3.47;;;1.58;;
45077;SDS011;60508;42.622;25.416;2022-08-04T20:10:27;2.15;;;1.65;;
45077;SDS011;60508;42.622;25.416;2022-08-04T20:12:52;7.70;;;1.63;;
45077;SDS011;60508;42.622;25.416;2022-08-04T20:15:19;1.98;;;1.48;;